N5AC PAKT-PAWG
Flight info
| Callsign | N5AC |
|---|---|
| Flight time | 0h 20m |
| Altitude | 17500 |
| Route | VFR DCT |
| Aircraft | C25B/M-SDE2E3FGHRWXY/LB1 |
Departure
| Time | 2026-05-06 06:44 |
|---|---|
| Airport | Ketchikan International Airport (PAKT) |
Arrival
| Time | 2026-05-06 07:04 |
|---|---|
| Airport | Wrangell Airport (PAWG) |
| Time | Latitude | Longitude | Altitude | Speed | Heading |
|---|---|---|---|---|---|
| 2026-05-06 06:19 | 55.35553 | -131.70827 | 96 ft | 0 kts | 30° |
| 2026-05-06 06:38 | 55.35560 | -131.70831 | 96 ft | 2 kts | 295° |
| 2026-05-06 06:39 | 55.35545 | -131.70881 | 96 ft | 7 kts | 212° |
| 2026-05-06 06:39 | 55.35501 | -131.70902 | 97 ft | 6 kts | 148° |
| 2026-05-06 06:39 | 55.35442 | -131.70852 | 97 ft | 11 kts | 158° |
| 2026-05-06 06:39 | 55.35370 | -131.70735 | 97 ft | 18 kts | 136° |
| 2026-05-06 06:40 | 55.35266 | -131.70563 | 97 ft | 22 kts | 138° |
| 2026-05-06 06:40 | 55.35150 | -131.70383 | 97 ft | 23 kts | 139° |
| 2026-05-06 06:40 | 55.35043 | -131.70214 | 98 ft | 21 kts | 138° |
| 2026-05-06 06:40 | 55.34943 | -131.70058 | 98 ft | 12 kts | 147° |
| 2026-05-06 06:41 | 55.34882 | -131.70046 | 99 ft | 0 kts | 205° |
| 2026-05-06 06:42 | 55.34875 | -131.70053 | 99 ft | 4 kts | 212° |
| 2026-05-06 06:42 | 55.34846 | -131.70127 | 98 ft | 0 kts | 256° |
| 2026-05-06 06:43 | 55.34850 | -131.70165 | 98 ft | 6 kts | 305° |
| 2026-05-06 06:43 | 55.34894 | -131.70240 | 97 ft | 24 kts | 315° |
| 2026-05-06 06:43 | 55.35370 | -131.71063 | 253 ft | 155 kts | 315° |
| 2026-05-06 06:44 | 55.36112 | -131.72455 | 1409 ft | 155 kts | 313° |
| 2026-05-06 06:44 | 55.36954 | -131.73891 | 2163 ft | 186 kts | 316° |
| 2026-05-06 06:44 | 55.37922 | -131.75524 | 3482 ft | 198 kts | 316° |
| 2026-05-06 06:44 | 55.38963 | -131.77307 | 4690 ft | 217 kts | 314° |
| 2026-05-06 06:45 | 55.40068 | -131.79229 | 5899 ft | 234 kts | 313° |
| 2026-05-06 06:45 | 55.41333 | -131.81358 | 6108 ft | 258 kts | 314° |
| 2026-05-06 06:45 | 55.42613 | -131.83484 | 6110 ft | 256 kts | 313° |
| 2026-05-06 06:45 | 55.43862 | -131.85693 | 6109 ft | 254 kts | 312° |
| 2026-05-06 06:46 | 55.45110 | -131.87881 | 6110 ft | 253 kts | 315° |
| 2026-05-06 06:46 | 55.46371 | -131.90027 | 6110 ft | 251 kts | 314° |
| 2026-05-06 06:46 | 55.47610 | -131.92197 | 6109 ft | 251 kts | 314° |
| 2026-05-06 06:46 | 55.48856 | -131.94342 | 6109 ft | 250 kts | 314° |
| 2026-05-06 06:47 | 55.50093 | -131.96505 | 6110 ft | 250 kts | 313° |
| 2026-05-06 06:47 | 55.51340 | -131.98661 | 6110 ft | 252 kts | 314° |
| 2026-05-06 06:47 | 55.52590 | -132.00844 | 6111 ft | 253 kts | 313° |
| 2026-05-06 06:47 | 55.53843 | -132.03045 | 6118 ft | 255 kts | 314° |
| 2026-05-06 06:48 | 55.55122 | -132.05203 | 6094 ft | 255 kts | 319° |
| 2026-05-06 06:48 | 55.56528 | -132.07093 | 6094 ft | 254 kts | 319° |
| 2026-05-06 06:48 | 55.57833 | -132.09188 | 6100 ft | 253 kts | 314° |
| 2026-05-06 06:48 | 55.59132 | -132.11303 | 6096 ft | 255 kts | 317° |
| 2026-05-06 06:49 | 55.60512 | -132.13274 | 6099 ft | 256 kts | 318° |
| 2026-05-06 06:49 | 55.61853 | -132.15290 | 6098 ft | 255 kts | 318° |
| 2026-05-06 06:49 | 55.63332 | -132.17088 | 6083 ft | 257 kts | 334° |
| 2026-05-06 06:49 | 55.65039 | -132.18003 | 6102 ft | 258 kts | 345° |
| 2026-05-06 06:50 | 55.66805 | -132.18599 | 6112 ft | 258 kts | 347° |
| 2026-05-06 06:50 | 55.68546 | -132.19182 | 6109 ft | 258 kts | 347° |
| 2026-05-06 06:50 | 55.70322 | -132.19687 | 6104 ft | 259 kts | 349° |
| 2026-05-06 06:50 | 55.72104 | -132.20143 | 6102 ft | 259 kts | 348° |
| 2026-05-06 06:51 | 55.73870 | -132.20760 | 6100 ft | 258 kts | 346° |
| 2026-05-06 06:51 | 55.75635 | -132.21349 | 6097 ft | 258 kts | 348° |
| 2026-05-06 06:51 | 55.77406 | -132.21876 | 6096 ft | 258 kts | 347° |
| 2026-05-06 06:51 | 55.79170 | -132.22445 | 6095 ft | 258 kts | 347° |
| 2026-05-06 06:52 | 55.80945 | -132.22985 | 6035 ft | 260 kts | 348° |
| 2026-05-06 06:52 | 55.82724 | -132.23559 | 6007 ft | 259 kts | 347° |
| 2026-05-06 06:52 | 55.84499 | -132.24111 | 6009 ft | 259 kts | 348° |
| 2026-05-06 06:52 | 55.86273 | -132.24666 | 6007 ft | 258 kts | 347° |
| 2026-05-06 06:53 | 55.88039 | -132.25234 | 6005 ft | 258 kts | 348° |
| 2026-05-06 06:53 | 55.89805 | -132.25774 | 6005 ft | 257 kts | 347° |
| 2026-05-06 06:53 | 55.91567 | -132.26349 | 6004 ft | 257 kts | 347° |
| 2026-05-06 06:53 | 55.93332 | -132.26891 | 6004 ft | 257 kts | 348° |
| 2026-05-06 06:54 | 55.95093 | -132.27456 | 6004 ft | 257 kts | 347° |
| 2026-05-06 06:54 | 55.96828 | -132.28028 | 6010 ft | 257 kts | 347° |
| 2026-05-06 06:54 | 55.98578 | -132.28387 | 6011 ft | 251 kts | 348° |
| 2026-05-06 06:54 | 56.00268 | -132.29174 | 5991 ft | 251 kts | 341° |
| 2026-05-06 06:55 | 56.01992 | -132.29700 | 5996 ft | 250 kts | 352° |
| 2026-05-06 06:55 | 56.03702 | -132.30045 | 5998 ft | 247 kts | 347° |
| 2026-05-06 06:55 | 56.05378 | -132.30772 | 5987 ft | 249 kts | 345° |
| 2026-05-06 06:55 | 56.07101 | -132.31359 | 5990 ft | 254 kts | 348° |
| 2026-05-06 06:56 | 56.08856 | -132.31882 | 5999 ft | 257 kts | 349° |
| 2026-05-06 06:56 | 56.10636 | -132.32333 | 6004 ft | 259 kts | 350° |
| 2026-05-06 06:56 | 56.12410 | -132.32946 | 6000 ft | 260 kts | 346° |
| 2026-05-06 06:56 | 56.14190 | -132.33555 | 5999 ft | 261 kts | 347° |
| 2026-05-06 06:57 | 56.15985 | -132.34097 | 5991 ft | 262 kts | 349° |
| 2026-05-06 06:57 | 56.17783 | -132.34639 | 5990 ft | 262 kts | 347° |
| 2026-05-06 06:57 | 56.19569 | -132.35257 | 5980 ft | 261 kts | 348° |
| 2026-05-06 06:57 | 56.21357 | -132.35825 | 5988 ft | 261 kts | 348° |
| 2026-05-06 06:58 | 56.23163 | -132.36413 | 5782 ft | 266 kts | 347° |
| 2026-05-06 06:58 | 56.24943 | -132.36978 | 5449 ft | 253 kts | 348° |
| 2026-05-06 06:58 | 56.26627 | -132.37511 | 5119 ft | 240 kts | 348° |
| 2026-05-06 06:58 | 56.28249 | -132.37987 | 4788 ft | 233 kts | 353° |
| 2026-05-06 06:59 | 56.29856 | -132.37816 | 4465 ft | 230 kts | 6° |
| 2026-05-06 06:59 | 56.31391 | -132.37111 | 4156 ft | 228 kts | 19° |
| 2026-05-06 06:59 | 56.32795 | -132.35819 | 3851 ft | 226 kts | 30° |
| 2026-05-06 06:59 | 56.34011 | -132.34030 | 3548 ft | 226 kts | 43° |
| 2026-05-06 07:00 | 56.35109 | -132.32071 | 3427 ft | 220 kts | 41° |
| 2026-05-06 07:00 | 56.36231 | -132.30158 | 3308 ft | 224 kts | 42° |
| 2026-05-06 07:00 | 56.37345 | -132.28188 | 3162 ft | 227 kts | 42° |
| 2026-05-06 07:00 | 56.38494 | -132.26183 | 2901 ft | 233 kts | 43° |
| 2026-05-06 07:01 | 56.39674 | -132.24120 | 2609 ft | 238 kts | 41° |
| 2026-05-06 07:01 | 56.41085 | -132.22708 | 2290 ft | 227 kts | 16° |
| 2026-05-06 07:01 | 56.42586 | -132.22255 | 1997 ft | 212 kts | 359° |
| 2026-05-06 07:01 | 56.43989 | -132.22719 | 1714 ft | 200 kts | 341° |
| 2026-05-06 07:02 | 56.45151 | -132.23806 | 1523 ft | 182 kts | 323° |
| 2026-05-06 07:02 | 56.46037 | -132.25321 | 1276 ft | 170 kts | 308° |
| 2026-05-06 07:02 | 56.46613 | -132.27026 | 1048 ft | 141 kts | 295° |
| 2026-05-06 07:02 | 56.46892 | -132.28511 | 847 ft | 113 kts | 283° |
| 2026-05-06 07:03 | 56.47051 | -132.29923 | 695 ft | 119 kts | 283° |
| 2026-05-06 07:03 | 56.47242 | -132.31328 | 541 ft | 112 kts | 283° |
| 2026-05-06 07:03 | 56.47396 | -132.32693 | 388 ft | 107 kts | 282° |
| 2026-05-06 07:03 | 56.47567 | -132.33924 | 262 ft | 94 kts | 287° |
| 2026-05-06 07:04 | 56.47793 | -132.34980 | 218 ft | 91 kts | 294° |
| 2026-05-06 07:04 | 56.48111 | -132.36054 | 84 ft | 98 kts | 300° |
| 2026-05-06 07:04 | 56.48423 | -132.36955 | 41 ft | 51 kts | 301° |
| 2026-05-06 07:04 | 56.48514 | -132.37270 | 39 ft | 15 kts | 281° |
| 2026-05-06 07:05 | 56.48513 | -132.37441 | 38 ft | 13 kts | 269° |
| 2026-05-06 07:05 | 56.48511 | -132.37602 | 38 ft | 8 kts | 269° |
| 2026-05-06 07:05 | 56.48488 | -132.37694 | 38 ft | 10 kts | 245° |
| 2026-05-06 07:05 | 56.48506 | -132.37796 | 37 ft | 11 kts | 320° |
| 2026-05-06 07:06 | 56.48553 | -132.37885 | 36 ft | 10 kts | 307° |
| 2026-05-06 07:06 | 56.48542 | -132.37918 | 36 ft | 3 kts | 184° |
| 2026-05-06 07:06 | 56.48530 | -132.37920 | 36 ft | 0 kts | 184° |